Time;durP1;ratioP1;P1;durP2;ratioP2;P2;SDS_P1;SDS_P2;PMS_P1;PMS_P2;Temp;Humidity;BMP_temperature;BMP_pressure;BME280_temperature;BME280_humidity;BME280_pressure;Samples;Min_cycle;Max_cycle;Signal;HPM_P1;HPM_P2
2021/08/31 00:02:16;;;;;;;0.00;0.00;;;21.00;99.90;;;;;;5113727;28;20035;-77
2021/08/31 00:04:41;;;;;;;0.00;0.00;;;21.00;99.90;;;;;;5113301;28;20019;-77
2021/08/31 00:07:07;;;;;;;0.00;0.00;;;21.00;99.90;;;;;;5113992;28;20094;-77
2021/08/31 00:09:33;;;;;;;0.10;0.10;;;21.00;99.90;;;;;;5114095;28;20047;-77
2021/08/31 00:11:59;;;;;;;0.00;0.00;;;21.00;99.90;;;;;;5114054;28;20031;-77
2021/08/31 00:14:24;;;;;;;0.00;0.00;;;21.00;99.90;;;;;;5112863;28;20024;-77
2021/08/31 00:16:50;;;;;;;0.10;0.10;;;21.00;99.90;;;;;;5112902;28;20039;-77
2021/08/31 00:19:16;;;;;;;0.00;0.00;;;21.00;99.90;;;;;;5114043;28;20098;-77
2021/08/31 00:21:41;;;;;;;0.00;0.00;;;21.00;99.90;;;;;;5114495;28;20094;-77
2021/08/31 00:24:07;;;;;;;0.00;0.00;;;21.00;99.90;;;;;;5114229;28;20490;-77
2021/08/31 00:26:33;;;;;;;0.00;0.00;;;21.00;99.90;;;;;;5113004;28;20434;-77
2021/08/31 00:28:58;;;;;;;0.00;0.00;;;21.00;99.90;;;;;;5113865;28;20185;-77
2021/08/31 00:31:24;;;;;;;0.00;0.00;;;20.90;99.90;;;;;;5112804;28;20024;-77
2021/08/31 00:33:50;;;;;;;0.00;0.00;;;21.00;99.90;;;;;;5114299;28;20044;-77
2021/08/31 00:36:15;;;;;;;0.00;0.00;;;21.00;99.90;;;;;;5113790;28;20035;-77
2021/08/31 00:38:41;;;;;;;0.00;0.00;;;21.00;99.90;;;;;;5112818;28;20433;-77
2021/08/31 00:41:07;;;;;;;0.00;0.00;;;21.00;99.90;;;;;;5112671;28;20019;-77
2021/08/31 00:43:46;;;;;;;0.00;0.00;;;21.00;99.90;;;;;;5112493;28;20040;-77
2021/08/31 00:46:14;;;;;;;0.00;0.00;;;21.00;99.90;;;;;;5112593;28;20024;-77
2021/08/31 00:48:42;;;;;;;0.00;0.00;;;20.90;99.90;;;;;;5112859;28;20028;-77
2021/08/31 00:51:09;;;;;;;0.00;0.00;;;20.90;99.90;;;;;;5114030;28;20015;-77
2021/08/31 00:53:36;;;;;;;0.03;0.03;;;20.90;99.90;;;;;;5112688;28;20109;-77
2021/08/31 00:56:04;;;;;;;0.00;0.00;;;20.90;99.90;;;;;;5113360;28;20115;-77
2021/08/31 00:58:32;;;;;;;0.00;0.00;;;20.90;99.90;;;;;;5112314;28;20028;-77
2021/08/31 01:00:58;;;;;;;0.00;0.00;;;20.90;99.90;;;;;;5112202;28;20055;-77
2021/08/31 01:03:24;;;;;;;0.03;0.03;;;20.90;99.90;;;;;;5112743;28;20035;-77
2021/08/31 01:05:50;;;;;;;0.00;0.00;;;20.90;99.90;;;;;;5112261;28;20042;-77
2021/08/31 01:08:16;;;;;;;0.00;0.00;;;20.80;99.90;;;;;;5112245;28;20361;-77
2021/08/31 01:10:42;;;;;;;0.00;0.00;;;20.90;99.90;;;;;;5112167;28;20020;-77
2021/08/31 01:13:07;;;;;;;0.00;0.00;;;20.90;99.90;;;;;;5112216;28;20476;-77
2021/08/31 01:15:33;;;;;;;0.00;0.00;;;20.80;99.90;;;;;;5112171;28;20040;-77
2021/08/31 01:18:20;;;;;;;0.00;0.00;;;20.90;99.90;;;;;;5114341;28;20028;-77
2021/08/31 01:20:47;;;;;;;0.00;0.00;;;20.90;99.90;;;;;;5117488;28;20508;-77
2021/08/31 01:23:14;;;;;;;0.00;0.00;;;20.90;99.90;;;;;;5116119;28;20035;-77
2021/08/31 01:25:40;;;;;;;0.00;0.00;;;20.80;99.90;;;;;;5116065;28;20020;-77
2021/08/31 01:28:05;;;;;;;0.00;0.00;;;20.80;99.90;;;;;;5115910;28;20488;-77
2021/08/31 01:30:32;;;;;;;0.10;0.10;;;20.90;99.90;;;;;;5116148;28;20053;-77
2021/08/31 01:32:59;;;;;;;0.00;0.00;;;20.80;99.90;;;;;;5130980;22;20037;-75
2021/08/31 01:35:25;;;;;;;0.00;0.00;;;20.80;99.90;;;;;;5117097;28;20048;-75
2021/08/31 01:37:50;;;;;;;0.10;0.10;;;20.80;99.90;;;;;;5117070;28;20064;-75
2021/08/31 01:40:16;;;;;;;0.00;0.00;;;20.70;99.90;;;;;;5117021;28;20369;-75
2021/08/31 01:42:41;;;;;;;0.10;0.10;;;20.70;99.90;;;;;;5116943;28;20499;-75
2021/08/31 01:45:07;;;;;;;0.00;0.00;;;20.70;99.90;;;;;;5116976;28;20024;-74
2021/08/31 01:47:33;;;;;;;0.00;0.00;;;20.70;99.90;;;;;;5116871;28;20035;-75
2021/08/31 01:49:59;;;;;;;0.00;0.00;;;20.60;99.90;;;;;;5117023;28;20141;-75
2021/08/31 01:52:24;;;;;;;0.00;0.00;;;20.40;99.90;;;;;;5116931;28;20153;-74
2021/08/31 01:54:50;;;;;;;0.00;0.00;;;20.50;99.90;;;;;;5117061;28;20063;-75
2021/08/31 01:57:15;;;;;;;0.00;0.00;;;20.40;99.90;;;;;;5116745;28;20023;-75
2021/08/31 01:59:41;;;;;;;0.00;0.00;;;20.40;99.90;;;;;;5117160;28;20023;-75
2021/08/31 02:02:07;;;;;;;0.08;0.08;;;20.30;99.90;;;;;;5115359;28;20024;-75
2021/08/31 02:04:32;;;;;;;0.00;0.00;;;20.20;99.90;;;;;;5116969;28;20118;-75
2021/08/31 02:07:00;;;;;;;0.10;0.10;;;20.20;99.90;;;;;;5115509;28;20028;-75
2021/08/31 02:09:25;;;;;;;0.00;0.00;;;20.20;99.90;;;;;;5115419;28;20437;-75
2021/08/31 02:11:51;;;;;;;0.05;0.05;;;20.20;99.90;;;;;;5116508;28;20108;-75
2021/08/31 02:14:17;;;;;;;0.00;0.00;;;20.10;99.90;;;;;;5115136;28;20023;-75
2021/08/31 02:16:42;;;;;;;0.08;0.08;;;20.10;99.90;;;;;;5116289;28;20050;-75
2021/08/31 02:19:08;;;;;;;0.00;0.00;;;20.00;99.90;;;;;;5115110;28;20380;-75
2021/08/31 02:21:34;;;;;;;0.10;0.10;;;20.00;99.90;;;;;;5115067;28;20024;-75
2021/08/31 02:23:59;;;;;;;0.00;0.00;;;20.00;99.90;;;;;;5116612;28;20058;-75
2021/08/31 02:26:30;;;;;;;0.00;0.00;;;19.90;99.90;;;;;;5116153;28;20023;-75
2021/08/31 02:28:55;;;;;;;0.10;0.10;;;19.90;99.90;;;;;;5116081;28;20042;-75
2021/08/31 02:31:21;;;;;;;0.10;0.10;;;19.90;99.90;;;;;;5116060;28;20016;-75
2021/08/31 02:33:47;;;;;;;0.00;0.00;;;19.80;99.90;;;;;;5117503;28;20039;-75
2021/08/31 02:36:12;;;;;;;0.00;0.00;;;19.80;99.90;;;;;;5115931;28;20042;-75
2021/08/31 02:38:38;;;;;;;0.10;0.10;;;19.70;99.90;;;;;;5115998;28;20032;-74
2021/08/31 02:41:04;;;;;;;0.00;0.00;;;19.60;99.90;;;;;;5114574;28;20051;-76
2021/08/31 02:43:29;;;;;;;0.10;0.10;;;19.50;99.90;;;;;;5115875;28;20085;-74
2021/08/31 02:45:55;;;;;;;0.10;0.10;;;19.50;99.90;;;;;;5115773;27;20486;-74
2021/08/31 02:48:21;;;;;;;0.00;0.00;;;19.50;99.90;;;;;;5115993;28;20031;-74
2021/08/31 02:50:46;;;;;;;0.10;0.10;;;19.40;99.90;;;;;;5115664;28;20072;-73
2021/08/31 02:53:12;;;;;;;0.00;0.00;;;19.40;99.90;;;;;;5114245;28;20027;-74
2021/08/31 02:55:38;;;;;;;0.00;0.00;;;19.30;99.90;;;;;;5115509;27;20496;-74
2021/08/31 02:58:03;;;;;;;0.10;0.10;;;19.30;99.90;;;;;;5115513;28;20059;-74
2021/08/31 03:00:31;;;;;;;0.10;0.10;;;19.20;99.90;;;;;;5115517;28;20019;-76
2021/08/31 03:02:58;;;;;;;0.00;0.00;;;19.10;99.90;;;;;;5114159;28;20472;-74
2021/08/31 03:05:24;;;;;;;0.00;0.00;;;19.10;99.90;;;;;;5115480;28;20034;-74
2021/08/31 03:07:51;;;;;;;0.00;0.00;;;19.10;99.90;;;;;;5115263;28;20024;-75
2021/08/31 03:10:16;;;;;;;0.10;0.10;;;19.00;99.90;;;;;;5115240;28;20023;-74
2021/08/31 03:12:42;;;;;;;0.10;0.10;;;19.00;99.90;;;;;;5115174;28;20024;-74
2021/08/31 03:15:08;;;;;;;0.00;0.00;;;18.90;99.90;;;;;;5115501;28;20480;-74
2021/08/31 03:17:34;;;;;;;0.00;0.00;;;19.00;99.90;;;;;;5113752;28;20024;-74
2021/08/31 03:19:59;;;;;;;0.00;0.00;;;18.90;99.90;;;;;;5113742;28;20551;-74
2021/08/31 03:22:25;;;;;;;0.10;0.10;;;19.00;99.90;;;;;;5115183;28;20022;-74
2021/08/31 03:24:51;;;;;;;0.00;0.00;;;19.00;99.90;;;;;;5115558;28;20123;-74
2021/08/31 03:27:16;;;;;;;0.10;0.10;;;19.00;99.90;;;;;;5114999;28;20099;-74
2021/08/31 03:29:42;;;;;;;0.10;0.10;;;19.00;99.90;;;;;;5115217;28;20556;-76
2021/08/31 03:32:08;;;;;;;0.10;0.10;;;19.00;99.90;;;;;;5114844;28;20027;-74
2021/08/31 03:34:33;;;;;;;0.00;0.00;;;18.90;99.90;;;;;;5116490;28;20533;-74
2021/08/31 03:36:59;;;;;;;0.08;0.08;;;18.90;99.90;;;;;;5114591;28;20042;-74
2021/08/31 03:39:25;;;;;;;0.10;0.10;;;18.90;99.90;;;;;;5115054;28;20039;-74
2021/08/31 03:41:50;;;;;;;0.00;0.00;;;18.80;99.90;;;;;;5113064;28;20138;-74
2021/08/31 03:44:16;;;;;;;0.00;0.00;;;18.80;99.90;;;;;;5114898;28;20031;-74
2021/08/31 03:46:42;;;;;;;0.00;0.00;;;18.80;99.90;;;;;;5114555;28;20466;-74
2021/08/31 03:49:07;;;;;;;0.00;0.00;;;18.80;99.90;;;;;;5114814;28;20043;-74
2021/08/31 03:51:33;;;;;;;0.00;0.00;;;18.80;99.90;;;;;;5114488;28;20020;-74
2021/08/31 03:53:59;;;;;;;0.10;0.10;;;18.80;99.90;;;;;;5114581;28;20035;-74
2021/08/31 03:56:25;;;;;;;0.10;0.10;;;18.80;99.90;;;;;;5114136;28;20063;-74
2021/08/31 03:58:50;;;;;;;0.10;0.10;;;18.80;99.90;;;;;;5114468;28;20113;-74
2021/08/31 04:01:16;;;;;;;0.00;0.00;;;18.70;99.90;;;;;;5113014;28;20028;-74
2021/08/31 04:03:42;;;;;;;0.00;0.00;;;18.70;99.90;;;;;;5114619;28;20028;-74
2021/08/31 04:06:08;;;;;;;0.10;0.10;;;18.70;99.90;;;;;;5114292;28;20069;-75
2021/08/31 04:08:33;;;;;;;0.10;0.10;;;18.70;99.90;;;;;;5114323;28;20032;-74
2021/08/31 04:10:59;;;;;;;0.10;0.10;;;18.80;99.90;;;;;;5114005;28;20015;-74
2021/08/31 04:13:25;;;;;;;0.00;0.00;;;18.80;99.90;;;;;;5114224;28;20500;-74
2021/08/31 04:15:50;;;;;;;0.00;0.00;;;18.80;99.90;;;;;;5114225;28;20515;-74
2021/08/31 04:18:16;;;;;;;0.00;0.00;;;18.80;99.90;;;;;;5114422;28;20077;-74
2021/08/31 04:20:42;;;;;;;0.00;0.00;;;18.90;99.90;;;;;;5114103;28;20027;-75
2021/08/31 04:23:07;;;;;;;0.00;0.00;;;18.90;99.90;;;;;;5114059;28;20039;-75
2021/08/31 04:25:34;;;;;;;0.10;0.10;;;18.90;99.90;;;;;;5113949;28;20028;-74
2021/08/31 04:27:59;;;;;;;0.10;0.10;;;19.10;99.90;;;;;;5112486;28;20032;-74
2021/08/31 04:30:25;;;;;;;0.10;0.10;;;19.10;99.90;;;;;;5112960;28;20016;-74
2021/08/31 04:33:00;;;;;;;0.10;0.10;;;19.10;99.90;;;;;;5114134;28;20019;-74
2021/08/31 04:35:26;;;;;;;0.10;0.10;;;19.20;99.90;;;;;;5112656;28;20472;-74
2021/08/31 04:37:52;;;;;;;0.10;0.10;;;19.20;99.90;;;;;;5111936;28;20020;-75
2021/08/31 04:40:18;;;;;;;0.00;0.00;;;19.20;99.90;;;;;;5113914;28;20432;-74
2021/08/31 04:42:43;;;;;;;0.10;0.10;;;19.20;99.90;;;;;;5113671;28;20063;-76
2021/08/31 04:45:09;;;;;;;0.05;0.05;;;19.20;99.90;;;;;;5113697;28;20067;-74
2021/08/31 04:47:35;;;;;;;0.10;0.10;;;19.20;99.90;;;;;;5112753;28;20027;-74
2021/08/31 04:50:01;;;;;;;0.00;0.00;;;19.20;99.90;;;;;;5112864;28;20515;-75
2021/08/31 04:52:26;;;;;;;0.10;0.10;;;19.20;99.90;;;;;;5113717;28;20031;-74
2021/08/31 04:54:52;;;;;;;0.00;0.00;;;19.30;99.90;;;;;;5115531;28;20097;-75
2021/08/31 04:57:17;;;;;;;0.00;0.00;;;19.40;99.90;;;;;;5115719;28;20016;-74
2021/08/31 04:59:43;;;;;;;0.10;0.10;;;19.40;99.90;;;;;;5114427;28;20031;-75
2021/08/31 05:02:09;;;;;;;0.00;0.00;;;19.40;99.90;;;;;;5115549;28;20383;-75
2021/08/31 05:04:35;;;;;;;0.00;0.00;;;19.50;99.90;;;;;;5116174;28;20472;-75
2021/08/31 05:07:04;;;;;;;0.00;0.00;;;19.50;99.90;;;;;;5115666;28;20019;-74
2021/08/31 05:09:29;;;;;;;0.08;0.08;;;19.50;99.90;;;;;;5115566;28;20042;-74
2021/08/31 05:11:55;;;;;;;0.10;0.10;;;19.50;99.90;;;;;;5117234;28;20095;-74
2021/08/31 05:14:20;;;;;;;0.08;0.08;;;19.60;99.90;;;;;;5117527;28;20459;-74
2021/08/31 05:16:46;;;;;;;0.10;0.10;;;19.60;99.90;;;;;;5117072;28;20096;-74
2021/08/31 05:19:12;;;;;;;0.03;0.03;;;19.60;99.90;;;;;;5117549;28;20038;-74
2021/08/31 05:21:38;;;;;;;0.00;0.00;;;19.70;99.90;;;;;;5117485;28;20026;-74
2021/08/31 05:24:04;;;;;;;0.10;0.10;;;19.70;99.90;;;;;;5115594;28;20031;-74
2021/08/31 05:26:30;;;;;;;0.00;0.00;;;19.70;99.90;;;;;;5116540;28;20105;-75
2021/08/31 05:28:55;;;;;;;0.08;0.08;;;19.70;99.90;;;;;;5116510;28;20073;-74
2021/08/31 05:31:21;;;;;;;0.00;0.00;;;19.70;99.90;;;;;;5116787;28;20023;-75
2021/08/31 05:33:47;;;;;;;0.00;0.00;;;19.70;99.90;;;;;;5116158;28;20126;-74
2021/08/31 05:36:12;;;;;;;0.00;0.00;;;19.80;99.90;;;;;;5115618;28;20106;-75
2021/08/31 05:38:38;;;;;;;0.00;0.00;;;19.80;99.90;;;;;;5115669;28;20058;-75
2021/08/31 05:41:04;;;;;;;0.10;0.10;;;19.80;99.90;;;;;;5114069;28;20030;-74
2021/08/31 05:43:29;;;;;;;0.00;0.00;;;19.80;99.90;;;;;;5115946;28;20031;-75
2021/08/31 05:45:55;;;;;;;0.00;0.00;;;19.90;99.90;;;;;;5115504;27;20103;-74
2021/08/31 05:48:21;;;;;;;0.00;0.00;;;20.00;99.90;;;;;;5112298;28;20675;-75
2021/08/31 05:50:50;;;;;;;0.10;0.10;;;20.10;99.90;;;;;;5111499;28;20047;-74
2021/08/31 05:53:15;;;;;;;0.00;0.00;;;20.20;99.90;;;;;;5110354;28;20036;-75
2021/08/31 05:55:42;;;;;;;0.00;0.00;;;20.30;99.90;;;;;;5115073;28;20164;-74
2021/08/31 05:58:07;;;;;;;0.00;0.00;;;20.40;99.90;;;;;;5114021;28;20028;-75
2021/08/31 06:00:33;;;;;;;0.00;0.00;;;20.40;99.90;;;;;;5113449;28;20095;-74
2021/08/31 06:02:59;;;;;;;0.00;0.00;;;20.50;99.90;;;;;;5112494;28;20491;-74
2021/08/31 06:05:25;;;;;;;0.00;0.00;;;20.60;99.90;;;;;;5110891;28;20023;-74
2021/08/31 06:07:50;;;;;;;0.00;0.00;;;20.70;99.90;;;;;;5109130;28;20055;-74
2021/08/31 06:10:18;;;;;;;0.05;0.05;;;20.70;99.90;;;;;;5111977;28;20068;-73
2021/08/31 06:12:44;;;;;;;0.10;0.10;;;20.80;99.90;;;;;;5113626;28;20031;-74
2021/08/31 06:15:10;;;;;;;0.00;0.00;;;20.80;99.70;;;;;;5112104;28;20024;-74
2021/08/31 06:17:37;;;;;;;0.00;0.00;;;20.80;99.10;;;;;;5111363;28;20060;-74
2021/08/31 06:20:08;;;;;;;0.00;0.00;;;20.90;99.40;;;;;;5110095;27;20031;-75
2021/08/31 06:22:36;;;;;;;0.10;0.10;;;21.00;99.20;;;;;;5109100;28;20130;-75
2021/08/31 06:25:02;;;;;;;0.00;0.00;;;21.10;98.60;;;;;;5108800;28;20020;-76
2021/08/31 06:27:28;;;;;;;0.00;0.00;;;21.30;97.60;;;;;;5108280;28;20114;-75
2021/08/31 06:29:54;;;;;;;0.00;0.00;;;21.40;97.30;;;;;;5110274;28;20028;-75
2021/08/31 06:32:20;;;;;;;0.00;0.00;;;21.70;95.70;;;;;;5109145;28;20008;-75
2021/08/31 06:34:46;;;;;;;0.10;0.10;;;21.90;94.60;;;;;;5110443;28;20520;-75
2021/08/31 06:37:11;;;;;;;0.00;0.00;;;22.20;93.20;;;;;;5109128;28;20469;-76
2021/08/31 06:39:37;;;;;;;0.00;0.00;;;22.70;93.00;;;;;;5108482;28;20546;-76
2021/08/31 06:42:03;;;;;;;0.00;0.00;;;23.20;91.40;;;;;;5107871;28;20027;-76
2021/08/31 06:44:29;;;;;;;0.00;0.00;;;23.60;88.60;;;;;;5110441;28;20417;-76
2021/08/31 06:46:54;;;;;;;0.00;0.00;;;24.00;87.40;;;;;;5111697;28;20065;-76
2021/08/31 06:49:20;;;;;;;0.00;0.00;;;24.40;84.50;;;;;;5111818;28;20127;-76
2021/08/31 06:51:45;;;;;;;0.00;0.00;;;25.00;81.70;;;;;;5109408;28;20046;-76
2021/08/31 06:54:11;;;;;;;0.00;0.00;;;25.60;79.80;;;;;;5111367;28;20379;-76
2021/08/31 06:56:37;;;;;;;0.00;0.00;;;26.20;77.60;;;;;;5108539;28;20035;-76
2021/08/31 06:59:03;;;;;;;0.00;0.00;;;26.50;73.20;;;;;;5109172;28;20027;-76
2021/08/31 07:01:29;;;;;;;0.00;0.00;;;26.90;73.60;;;;;;5107126;28;20026;-76
2021/08/31 07:03:55;;;;;;;0.00;0.00;;;27.40;71.60;;;;;;5105144;28;20103;-77
2021/08/31 07:06:20;;;;;;;0.00;0.00;;;28.20;71.90;;;;;;5106398;28;20538;-76
2021/08/31 07:08:47;;;;;;;0.00;0.00;;;29.10;67.10;;;;;;5106520;28;20031;-76
2021/08/31 07:11:12;;;;;;;0.00;0.00;;;29.50;67.20;;;;;;5106648;28;20582;-76
2021/08/31 07:13:38;;;;;;;0.00;0.00;;;29.70;67.40;;;;;;5107050;28;20032;-76
2021/08/31 07:16:04;;;;;;;0.00;0.00;;;30.10;66.00;;;;;;5106395;28;20127;-76
2021/08/31 07:18:30;;;;;;;0.00;0.00;;;30.50;62.90;;;;;;5107686;28;20121;-76
2021/08/31 07:20:56;;;;;;;0.00;0.00;;;30.70;60.90;;;;;;5107894;28;20046;-76
2021/08/31 07:23:21;;;;;;;0.00;0.00;;;30.90;61.10;;;;;;5107976;28;20055;-76
2021/08/31 07:25:48;;;;;;;0.00;0.00;;;31.20;60.40;;;;;;5107348;28;20385;-76
2021/08/31 07:28:14;;;;;;;0.00;0.00;;;31.50;59.00;;;;;;5108665;28;20440;-76
2021/08/31 07:30:40;;;;;;;0.00;0.00;;;31.70;58.10;;;;;;5109105;28;20103;-76
2021/08/31 07:33:07;;;;;;;0.00;0.00;;;32.00;57.20;;;;;;5111005;28;20028;-76
2021/08/31 07:35:36;;;;;;;0.00;0.00;;;32.10;56.10;;;;;;5112700;28;20384;-76
2021/08/31 07:38:03;;;;;;;0.00;0.00;;;32.10;55.00;;;;;;5113746;28;20040;-76
2021/08/31 07:40:29;;;;;;;0.00;0.00;;;32.10;54.90;;;;;;5110963;28;20455;-75
2021/08/31 07:42:55;;;;;;;0.00;0.00;;;32.10;55.00;;;;;;5112631;27;20028;-75
2021/08/31 07:45:22;;;;;;;0.00;0.00;;;32.40;55.10;;;;;;5112013;28;20030;-74
2021/08/31 07:47:48;;;;;;;0.00;0.00;;;32.60;53.00;;;;;;5111235;28;20157;-75
2021/08/31 07:50:14;;;;;;;0.00;0.00;;;32.50;52.80;;;;;;5110245;28;20111;-75
2021/08/31 07:52:40;;;;;;;0.05;0.05;;;32.60;52.70;;;;;;5110541;28;20024;-75
2021/08/31 07:55:09;;;;;;;0.00;0.00;;;32.80;52.20;;;;;;5108022;28;20472;-75
2021/08/31 07:57:36;;;;;;;0.00;0.00;;;32.90;51.80;;;;;;5108187;28;20031;-75
2021/08/31 08:00:07;;;;;;;0.00;0.00;;;33.20;51.20;;;;;;5108581;28;20059;-75
2021/08/31 08:02:34;;;;;;;0.00;0.00;;;33.30;51.20;;;;;;5110208;28;20429;-75
2021/08/31 08:05:04;;;;;;;0.00;0.00;;;33.20;50.70;;;;;;5109794;28;20632;-75
2021/08/31 08:07:31;;;;;;;0.00;0.00;;;33.10;50.10;;;;;;5108845;28;20023;-75
2021/08/31 08:09:57;;;;;;;0.00;0.00;;;32.90;50.40;;;;;;5105972;28;20024;-75
2021/08/31 08:12:23;;;;;;;0.00;0.00;;;32.90;49.90;;;;;;5109092;28;20415;-75
2021/08/31 08:14:49;;;;;;;0.00;0.00;;;33.00;49.20;;;;;;5108634;28;20315;-76
2021/08/31 08:17:19;;;;;;;0.00;0.00;;;33.10;49.90;;;;;;5106082;28;20023;-75
2021/08/31 08:19:45;;;;;;;0.00;0.00;;;33.30;49.80;;;;;;5106593;28;20131;-76
2021/08/31 08:22:12;;;;;;;0.00;0.00;;;33.50;49.90;;;;;;5106568;28;20023;-75
2021/08/31 08:24:38;;;;;;;0.10;0.10;;;33.70;49.10;;;;;;5105774;28;20267;-75
2021/08/31 08:27:04;;;;;;;0.10;0.10;;;34.20;48.60;;;;;;5105851;28;20027;-76
2021/08/31 08:29:30;;;;;;;0.00;0.00;;;34.80;48.20;;;;;;5105551;28;20039;-77
2021/08/31 08:31:56;;;;;;;0.05;0.05;;;35.10;47.00;;;;;;5107628;28;20265;-76
2021/08/31 08:34:23;;;;;;;0.00;0.00;;;35.50;46.80;;;;;;5108745;28;20038;-76
2021/08/31 08:36:49;;;;;;;0.10;0.10;;;35.80;46.40;;;;;;5106586;28;20484;-77
2021/08/31 08:39:14;;;;;;;0.00;0.00;;;36.30;45.90;;;;;;5108677;28;20038;-76
2021/08/31 08:41:41;;;;;;;0.10;0.10;;;36.40;44.00;;;;;;5108270;28;20407;-77
2021/08/31 08:44:07;;;;;;;0.10;0.10;;;36.40;43.60;;;;;;5110427;28;20053;-78
2021/08/31 08:46:33;;;;;;;0.10;0.10;;;36.40;43.60;;;;;;5110828;28;20028;-76
2021/08/31 08:48:59;;;;;;;0.00;0.00;;;36.30;43.70;;;;;;5113321;28;20031;-76
2021/08/31 08:51:25;;;;;;;0.08;0.08;;;36.20;43.30;;;;;;5113279;28;20012;-77
2021/08/31 08:53:51;;;;;;;0.10;0.10;;;36.50;43.30;;;;;;5112687;28;20427;-77
2021/08/31 08:56:17;;;;;;;0.10;0.10;;;36.60;42.10;;;;;;5111897;28;20035;-76
2021/08/31 08:58:43;;;;;;;0.00;0.00;;;36.80;42.70;;;;;;5105557;28;20031;-76
2021/08/31 09:01:11;;;;;;;0.10;0.10;;;37.20;42.70;;;;;;5108558;28;20099;-76
2021/08/31 09:03:40;;;;;;;0.00;0.00;;;37.50;42.20;;;;;;5107072;28;20031;-76
2021/08/31 09:06:08;;;;;;;0.10;0.10;;;37.90;42.30;;;;;;5104555;28;20047;-76
2021/08/31 09:08:35;;;;;;;0.10;0.10;;;38.40;41.30;;;;;;5104952;28;20525;-76
2021/08/31 09:11:18;;;;;;;0.10;0.10;;;38.60;41.30;;;;;;5105614;28;20107;-76
2021/08/31 09:13:44;;;;;;;0.10;0.10;;;39.30;39.90;;;;;;5105666;28;20043;-76
2021/08/31 09:16:21;;;;;;;0.10;0.10;;;39.50;40.50;;;;;;5103965;28;20084;-76
2021/08/31 09:18:52;;;;;;;0.10;0.10;;;39.30;39.20;;;;;;5105552;28;20485;-76
2021/08/31 09:21:27;;;;;;;0.00;0.00;;;39.10;40.30;;;;;;5105608;28;20102;-76
2021/08/31 09:23:55;;;;;;;0.10;0.10;;;39.40;39.90;;;;;;5105348;28;20707;-76
2021/08/31 09:26:36;;;;;;;0.10;0.10;;;39.70;40.60;;;;;;5105498;28;20019;-77
2021/08/31 09:29:11;;;;;;;0.10;0.10;;;39.80;39.40;;;;;;5107166;28;20023;-77
2021/08/31 09:31:54;;;;;;;0.10;0.10;;;39.80;38.50;;;;;;5110553;28;20023;-77
2021/08/31 09:34:33;;;;;;;0.10;0.10;;;39.50;39.00;;;;;;5112329;28;20107;-76
2021/08/31 09:37:25;;;;;;;0.10;0.10;;;39.30;38.60;;;;;;5111351;28;20043;-77
2021/08/31 09:40:08;;;;;;;0.10;0.10;;;39.00;38.60;;;;;;5112131;28;20026;-77
2021/08/31 09:42:34;;;;;;;0.10;0.10;;;39.20;39.30;;;;;;5111497;28;20043;-76
2021/08/31 09:45:06;;;;;;;0.10;0.10;;;39.50;39.50;;;;;;5110721;28;20028;-76
2021/08/31 09:47:36;;;;;;;0.10;0.10;;;39.60;38.40;;;;;;5112406;28;20034;-76
2021/08/31 09:50:04;;;;;;;0.10;0.10;;;39.90;39.30;;;;;;5109961;27;20484;-76
2021/08/31 09:52:31;;;;;;;0.10;0.10;;;40.20;38.10;;;;;;5108738;28;20514;-76
2021/08/31 09:54:57;;;;;;;0.10;0.10;;;39.90;37.70;;;;;;5109236;28;20043;-76
2021/08/31 09:57:38;;;;;;;0.10;0.10;;;39.60;37.70;;;;;;5109717;28;20084;-75
2021/08/31 10:00:09;;;;;;;0.10;0.10;;;39.50;37.60;;;;;;5110687;28;20116;-76
2021/08/31 10:02:36;;;;;;;0.10;0.10;;;39.40;37.40;;;;;;5109312;28;20061;-77
2021/08/31 10:05:04;;;;;;;0.10;0.10;;;39.40;37.60;;;;;;5107927;28;20016;-75
2021/08/31 10:07:31;;;;;;;0.10;0.10;;;39.60;38.10;;;;;;5105527;28;20012;-75
2021/08/31 10:09:59;;;;;;;0.10;0.10;;;40.10;37.90;;;;;;5103914;28;20573;-76
2021/08/31 10:12:26;;;;;;;0.10;0.10;;;40.50;37.50;;;;;;5107055;28;20094;-75
2021/08/31 10:14:54;;;;;;;0.10;0.10;;;40.50;37.20;;;;;;5106177;28;20126;-75
2021/08/31 10:17:26;;;;;;;0.10;0.10;;;40.80;36.80;;;;;;5108134;28;20058;-75
2021/08/31 10:19:56;;;;;;;0.10;0.10;;;41.20;36.70;;;;;;5108051;28;20023;-75
2021/08/31 10:22:23;;;;;;;0.10;0.10;;;41.50;37.00;;;;;;5111247;28;20028;-75
2021/08/31 10:24:49;;;;;;;0.10;0.10;;;40.90;36.30;;;;;;5109452;28;20027;-75
2021/08/31 10:27:42;;;;;;;0.10;0.10;;;40.30;37.20;;;;;;5111545;28;20020;-75
2021/08/31 10:30:20;;;;;;;;;;;39.80;37.30;;;;;;5110860;28;20200;-75
2021/08/31 10:32:49;;;;;;;0.00;0.00;;;39.00;37.30;;;;;;5110896;28;19904;-75
2021/08/31 10:35:35;;;;;;;0.10;0.10;;;38.10;37.70;;;;;;5113335;28;20110;-75
2021/08/31 10:38:06;;;;;;;0.00;0.00;;;37.70;37.80;;;;;;5110382;28;20119;-75
2021/08/31 10:40:32;;;;;;;0.10;0.10;;;38.00;38.10;;;;;;5107914;28;20123;-75
2021/08/31 10:42:58;;;;;;;0.10;0.10;;;38.40;38.10;;;;;;5109955;27;20110;-75
2021/08/31 10:45:30;;;;;;;0.10;0.10;;;38.90;37.80;;;;;;5109052;28;20020;-74
2021/08/31 10:47:56;;;;;;;0.10;0.10;;;39.40;37.50;;;;;;5109226;28;20077;-74
2021/08/31 10:50:24;;;;;;;0.10;0.10;;;39.80;37.40;;;;;;5107592;28;20024;-74
2021/08/31 10:52:51;;;;;;;0.10;0.10;;;40.50;37.20;;;;;;5109889;28;20199;-74
2021/08/31 10:55:23;;;;;;;0.10;0.10;;;40.90;36.60;;;;;;5110359;28;20070;-75
2021/08/31 10:57:54;;;;;;;0.10;0.10;;;41.20;35.90;;;;;;5108969;28;20028;-74
2021/08/31 11:00:19;;;;;;;0.10;0.10;;;41.60;36.00;;;;;;5106403;28;20023;-75
2021/08/31 11:05:24;;;;;;;0.10;0.10;;;39.70;35.50;;;;;;5108821;28;20381;-75
2021/08/31 11:07:51;;;;;;;0.10;0.10;;;38.70;36.50;;;;;;5109553;28;20016;-74
2021/08/31 11:10:21;;;;;;;0.00;0.00;;;38.40;37.30;;;;;;5111416;28;20015;-75
2021/08/31 11:12:48;;;;;;;0.00;0.00;;;38.60;36.90;;;;;;5111594;28;20070;-74
2021/08/31 11:15:28;;;;;;;0.00;0.00;;;38.60;37.20;;;;;;5110326;28;20073;-74
2021/08/31 11:17:55;;;;;;;0.00;0.00;;;38.50;36.70;;;;;;5112760;28;20462;-74
2021/08/31 11:20:27;;;;;;;0.00;0.00;;;38.00;37.20;;;;;;5109809;28;20281;-75
2021/08/31 11:23:17;;;;;;;0.00;0.00;;;37.40;37.20;;;;;;5111173;28;20469;-74
2021/08/31 11:25:46;;;;;;;0.10;0.10;;;36.80;37.80;;;;;;5110137;28;20027;-74
2021/08/31 11:28:27;;;;;;;0.10;0.10;;;36.80;38.60;;;;;;5110417;28;20080;-74
2021/08/31 11:30:57;;;;;;;0.10;0.10;;;37.70;38.50;;;;;;5110343;28;20077;-75
2021/08/31 11:33:26;;;;;;;0.05;0.05;;;38.90;37.90;;;;;;5111347;28;20034;-75
2021/08/31 11:35:57;;;;;;;0.10;0.10;;;40.00;37.20;;;;;;5114550;28;20425;-74
2021/08/31 11:38:37;;;;;;;0.10;0.10;;;41.00;37.10;;;;;;5111262;28;20287;-75
2021/08/31 11:41:21;;;;;;;0.10;0.10;;;41.60;36.00;;;;;;5112286;28;20019;-74
2021/08/31 11:43:50;;;;;;;0.10;0.10;;;42.10;36.20;;;;;;5112115;28;20059;-75
2021/08/31 11:46:31;;;;;;;0.10;0.10;;;42.30;35.10;;;;;;5109228;27;20023;-76
2021/08/31 11:49:10;;;;;;;0.10;0.10;;;42.00;35.10;;;;;;5108702;28;20038;-77
2021/08/31 11:51:39;;;;;;;0.10;0.10;;;41.60;34.70;;;;;;5091052;28;20051;-75
2021/08/31 11:54:13;;;;;;;0.10;0.10;;;40.90;35.20;;;;;;5110468;28;20035;-75
2021/08/31 11:56:40;;;;;;;0.10;0.10;;;39.90;35.90;;;;;;5110451;28;20030;-75
2021/08/31 11:59:06;;;;;;;0.10;0.10;;;39.70;36.70;;;;;;5110442;28;20016;-75
2021/08/31 12:01:34;;;;;;;0.10;0.10;;;40.20;36.40;;;;;;5111323;28;20362;-75
2021/08/31 12:04:19;;;;;;;0.10;0.10;;;40.70;35.90;;;;;;5112198;28;20472;-75
2021/08/31 12:06:51;;;;;;;0.10;0.10;;;40.40;35.60;;;;;;5112203;28;20027;-75
2021/08/31 12:09:21;;;;;;;0.10;0.10;;;40.10;36.20;;;;;;5111264;28;20119;-75
2021/08/31 12:11:48;;;;;;;0.10;0.10;;;40.40;36.50;;;;;;5112257;28;20031;-75
2021/08/31 12:14:17;;;;;;;0.10;0.10;;;40.80;36.20;;;;;;5110639;28;20030;-76
2021/08/31 12:16:43;;;;;;;0.10;0.10;;;41.40;36.20;;;;;;5111791;28;20460;-75
2021/08/31 12:19:20;;;;;;;0.10;0.10;;;41.90;35.70;;;;;;5111697;28;20016;-76
2021/08/31 12:22:14;;;;;;;0.10;0.10;;;41.90;35.20;;;;;;5111639;28;20059;-75
2021/08/31 12:24:45;;;;;;;0.10;0.10;;;41.80;35.10;;;;;;5110511;28;20024;-76
2021/08/31 12:27:15;;;;;;;0.10;0.10;;;41.50;34.80;;;;;;5110957;28;20020;-75
2021/08/31 12:29:48;;;;;;;0.10;0.10;;;41.60;35.10;;;;;;5111823;28;20364;-75
2021/08/31 12:32:14;;;;;;;0.10;0.10;;;42.10;34.90;;;;;;5111642;28;20102;-75
2021/08/31 12:34:40;;;;;;;0.10;0.10;;;42.40;34.50;;;;;;5113009;28;20439;-75
2021/08/31 12:37:25;;;;;;;0.10;0.10;;;42.50;33.80;;;;;;5110255;28;20495;-75
2021/08/31 12:40:19;;;;;;;0.10;0.10;;;42.20;33.90;;;;;;5110356;28;20020;-75
2021/08/31 12:42:47;;;;;;;0.10;0.10;;;42.30;33.80;;;;;;5110070;28;20417;-75
2021/08/31 12:45:14;;;;;;;0.10;0.10;;;42.10;34.10;;;;;;5108944;28;20020;-75
2021/08/31 12:48:01;;;;;;;0.10;0.10;;;41.80;34.10;;;;;;5107290;28;20050;-75
2021/08/31 12:50:27;;;;;;;0.10;0.10;;;41.40;34.50;;;;;;5108555;28;20035;-75
2021/08/31 12:53:02;;;;;;;0.10;0.10;;;41.60;34.80;;;;;;5109386;28;20086;-75
2021/08/31 12:55:32;;;;;;;0.10;0.10;;;42.20;34.40;;;;;;5109568;28;20031;-75